Amorebieta-Etxano, Spain
Current Conditions -  °F | °C
As of 6:00 PM on Friday 31 Oct 2014 (Local Time) from LEBB Reporting Station
Clear Clear  
Wind Chill: 73°   Ceiling: Unl
Heat Index: 73°   Visibility: 6mi
Dew Point: 55°   Wind: 5mph
Humidity: 53%   Direction: 120°ESE
Pressure: 30.09"   Gusts: NA
Location:  43.22°N, 2.73°W
Report Text: LEBB 311700Z 12004KT 080V200 CAVOK 23/13 Q1019 NOSIG
Loading
Personal Weather Stations






























Interactive Weather Map
Tropical Storm Tracking
New forecast layout! Learn more

10-Day Weather Forecast

Advertisements
Track Severe Weather on mobile